Latest Observation

42 Stations

15 Minute Data | America/Los_Angeles
as of 5/10/26 6:14 AM PDT
Station Date Time Temp (°F) RH (%) Dew Pt (°F) Wind Spd (mph) Wind Dir (°) Wind Gust (mph) Latest Rain (In) Daily Rain (In) Daily Min Temp (°F) Daily Max Temp (°F) Daily Max Wind (mph)
Elk Mt. Farm 5/10/26 0600 46.2   1.2 - - - - - - - 46.2   1.1 51.5   1.5 -
Upper Lake 5/10/26 0600 46.3   1.2 98   0 45.9   1.2 0.1 NNW | 341 1.5   0.1 0.00 0.00 45.9   1.2 52.3   2.5 1.9   0.9
Scotts Valley 5/10/26 0600 41.7   0.6 98   0 41.2   0.7 0.0 S | 189 0.5   0.5 0.00 0.00 41.6   0.7 46.6   1.4 1.4   0.2
Scotts Valley-South (Bella Vista) 5/10/26 0600 46.5   0.5 91   1 44.0   0.9 0.2 WNW | 292 1.4   1.5 0.00 0.00 46.0   0.6 51.8   1.6 3.6   0.9
Kelseyville 5/10/26 0600 46.5   1.2 88   2 43.2   0.5 0.8 SW | 218 2.4   0.4 0.00 0.00 45.6   0.5 52.3   1.6 3.3   0.9
Kelseyville Remote 5/10/26 0600 47.2   1.0 79   4 41.0   0.3 - - - 0.00 0.00 46.7   0.6 53.0   2.3 -
Kelseyville (Clark Drive) 5/10/26 0600 45.2   0.5 - - - - - 0.00 0.00 44.9   0.6 51.7   1.4 -
Kelsey Bench (Oaklea) 5/10/26 0600 49.8   0.4 80   1 43.8   0.1 0.0 N | 0 0.0   0.0 0.00 0.00 49.0   0.1 54.3   0.4 2.2   1.3
Smith Lane (Kelseyville-South) 5/10/26 0600 44.8   0.5 94   0 43.1   0.4 0.5 SSE | 153 2.6   2.6 0.00 0.00 44.8   0.5 50.7   1.2 3.2   0.0
Bell Hill-West 5/10/26 0600 47.0   0.5 100   0 47.0   0.5 2.9 S | 189 4.1   1.0 0.00 0.00 46.8   0.5 51.8   1.2 4.4   0.3
High Valley Ridgeline (Brassfield) 5/10/26 0600 64.0   1.5 55   4 47.4   3.4 4.9 W | 276 7.1   1.2 0.00 0.00 62.1   0.7 64.7   0.3 11.7   4.7
Wight Way (Adobe Creek) 5/10/26 0600 44.5   0.4 92   2 42.5   0.9 1.8 SE | 140 2.8   0.2 0.00 0.00 44.2   0.2 49.6   1.3 3.9   1.1
Ridgeline Top (Brassfield) 5/10/26 0600 61.4   0.6 - - - - - - - 60.8   0.3 65.3   0.1 -
Ridgeline Low (Brassfield) 5/10/26 0600 60.5   2.4 - - - - - - - 59.8   4.7 66.5   3.4 -
Long Valley (Shannon) 5/10/26 0545 48.6   0.7 97   1 47.8   0.4 1.0 NNW | 335 2.0   1.3 0.00 0.00 47.0   0.5 53.6   0.6 2.8   0.7
High Valley Winery 5/10/26 0600 46.1   0.9 94   1 44.6   1.1 0.0 WNW | 303 0.5   0.8 0.00 0.00 45.9   1.0 51.8   0.7 3.3   0.4
Round Mtn Rd. 5/10/26 0600 54.7   3.9 - - - - - - - 53.2   3.5 58.1   2.4 -
Circle O 5/10/26 0600 50.7   0.8 - - - - - - - 49.5   0.1 54.9   1.5 -
Robertsbridge Vineyards 5/10/26 0600 45.6   1.2 94   4 43.9   0.1 - - - - - 45.4   0.4 50.1   0.8 -
Urgency Vineyard 5/10/26 0600 49.4   4.1 84   9 44.8   1.5 2.2 SSW | 208 3.5   0.7 0.00 0.00 49.4   4.5 63.4   3.2 7.7   2.4
Red Hills (Beckstoffer) 5/10/26 0600 47.2   5.0 87   8 43.6   2.8 - - - 0.00 0.00 47.2   5.0 65.6   5.1 -
Winters (Shannon) 5/10/26 0600 42.2   0.3 93   1 40.4   0.0 0.0 N | 0 0.0   0.0 0.00 0.00 42.2   0.2 51.8   1.1 4.0   2.0
Secret Pond (Shannon) 5/10/26 0600 51.6   4.2 76   8 44.3   1.5 0.4 ESE | 105 2.2   1.6 0.00 0.00 51.6   4.2 67.2   8.4 8.4   3.7
Rolling Knolls (Shannon) 5/10/26 0600 45.0   1.0 94   1 43.3   0.7 0.6 SSW | 213 2.4   1.5 0.00 0.00 44.9   1.1 50.9   0.1 3.0   1.4
Lower Lake 5/10/26 0600 51.5   0.4 90   5 48.6   2.0 3.3 WSW | 245 4.5   1.5 0.00 0.00 51.3   0.1 57.7   1.2 5.1   0.3
Adamson Ranch 5/10/26 0600 45.3   1.3 95   0 44.0   1.4 0.0 N | 0 0.0   0.0 0.00 0.00 45.3   1.3 51.3   0.6 1.5   0.4
Middletown (Diamond D) 5/10/26 0600 46.7   2.6 93   2 44.9   2.1 0.0 N | 0 0.0   2.3 0.00 0.00 46.6   2.6 55.2   0.1 3.8   1.9
Middletown-West (Domaine Helena) 5/10/26 0600 45.1   1.2 98   0 44.7   1.3 1.4 SW | 222 2.5   1.0 0.00 0.00 42.1   3.5 51.3   0.1 3.1   0.1
Middletown-South 5/10/26 0600 47.9   1.5 96   0 46.7   1.5 0.3 SSW | 210 1.6   0.0 0.00 0.00 47.4   1.7 54.0   0.8 3.0   0.3
Jim Davis (Langtry) 5/10/26 0600 53.8   0.9 91   7 51.4   1.2 2.1 W | 266 3.1   0.1 0.00 0.00 53.7   0.6 60.9   0.5 5.1   2.1
Napa Valley Basin 5/10/26 0600 45.7   1.8 98   0 45.1   1.7 0.6 SW | 214 1.4   0.0 0.00 0.00 45.2   1.9 52.6   1.4 2.6   0.1
Lower Bohn 5/10/26 0600 43.0   3.7 100   0 42.9   3.7 0.2 NE | 35 1.2   1.2 0.00 0.00 41.7   3.1 50.7   0.5 2.4   0.4
Upper Bohn-North 5/10/26 0600 50.8   3.4 100   12 50.8   0.0 1.3 SSE | 148 2.0   0.9 0.00 0.00 50.4   2.7 57.0   0.4 2.7   0.3
Snell Peak Blk#9 5/10/26 0600 54.2   2.1 99   7 54.0   0.2 0.2 WNW | 297 0.9   2.5 0.00 0.00 53.4   2.4 60.7   1.4 2.2   2.8
Coyote Lake West 5/10/26 0600 50.9   3.1 95   6 49.4   1.2 0.0 W | 264 0.5   1.1 0.00 0.00 50.9   3.1 57.8   2.9 1.6   3.0
Coyote Lake Northeast 5/10/26 0600 52.8   1.2 93   2 50.7   0.7 - - - - - 52.3   1.0 59.2   0.4 -
Coyote Lake East 5/10/26 0600 47.8   1.5 97   0 47.1   1.6 - - - - - 47.8   1.5 55.0   1.5 -
Morgan Valley 5/10/26 0600 63.2   1.1 62   14 49.8   4.6 6.2 NW | 313 11.4   9.1 0.00 0.00 63.2   2.5 67.9   3.6 19.0   8.9
Mine Pit North 5/10/26 0600 58.7   1.4 73   1 50.2   1.9 1.5 NNE | 17 4.1   0.4 - - 56.5   0.1 64.1   4.4 6.0   1.1
Mine Pit South 5/10/26 0600 61.4   2.2 69   3 51.2   3.3 2.1 N | 358 3.4   4.5 0.00 0.00 60.8   2.2 67.5   3.9 5.6   6.7
Cow Mountain 5/10/26 0600 70.0   5.1 - - 7.1 NW | 317 8.6   0.7 0.00 0.00 64.2   0.1 70.7   1.8 18.8   7.2
Ukiah-SE (Ruddick) 5/10/26 0600 45.7   1.1 92   2 43.4   0.6 3.0 SW | 235 4.3   1.9 0.00 0.00 45.4   0.8 54.0   3.0 5.2   2.8
Max     70.0 100 54.0 7.1 - 11.4 0.00 0.00 64.2 70.7 19.0
Avg     50.2 90 45.9 1.4 - 2.7 0.00 - - - -
Min     41.7 55 40.4 0.0 - 0.0 0.00 0.00 41.6 46.6 1.4